sensor_id;sensor_type;location;lat;lon;timestamp;temperature;humidity
36434;DHT22;31691;51.972;5.672;2023-08-20T00:00:12;25.90;99.90
36434;DHT22;31691;51.972;5.672;2023-08-20T00:05:14;26.10;99.90
36434;DHT22;31691;51.972;5.672;2023-08-20T00:10:17;26.10;99.90
36434;DHT22;31691;51.972;5.672;2023-08-20T00:15:19;26.20;99.90
36434;DHT22;31691;51.972;5.672;2023-08-20T00:20:24;26.30;99.90
36434;DHT22;31691;51.972;5.672;2023-08-20T00:25:27;26.00;99.90
36434;DHT22;31691;51.972;5.672;2023-08-20T00:30:29;25.90;99.90
36434;DHT22;31691;51.972;5.672;2023-08-20T00:35:32;25.90;99.90
36434;DHT22;31691;51.972;5.672;2023-08-20T00:40:34;25.80;99.90
36434;DHT22;31691;51.972;5.672;2023-08-20T00:45:37;25.70;99.90
36434;DHT22;31691;51.972;5.672;2023-08-20T00:50:39;25.60;99.90
36434;DHT22;31691;51.972;5.672;2023-08-20T00:55:42;25.60;99.90
36434;DHT22;31691;51.972;5.672;2023-08-20T01:00:46;25.50;99.90
36434;DHT22;31691;51.972;5.672;2023-08-20T01:05:52;25.60;99.90
36434;DHT22;31691;51.972;5.672;2023-08-20T01:11:00;25.60;99.90
36434;DHT22;31691;51.972;5.672;2023-08-20T01:16:04;25.70;99.90
36434;DHT22;31691;51.972;5.672;2023-08-20T01:21:20;25.80;99.90
36434;DHT22;31691;51.972;5.672;2023-08-20T01:26:44;25.90;99.90
36434;DHT22;31691;51.972;5.672;2023-08-20T01:31:51;25.90;99.90
36434;DHT22;31691;51.972;5.672;2023-08-20T01:36:54;26.00;99.90
36434;DHT22;31691;51.972;5.672;2023-08-20T01:41:57;26.00;99.90
36434;DHT22;31691;51.972;5.672;2023-08-20T01:46:59;26.00;99.90
36434;DHT22;31691;51.972;5.672;2023-08-20T01:52:01;25.90;99.90
36434;DHT22;31691;51.972;5.672;2023-08-20T01:57:04;25.90;99.90
36434;DHT22;31691;51.972;5.672;2023-08-20T02:02:06;25.80;99.90
36434;DHT22;31691;51.972;5.672;2023-08-20T02:07:09;25.80;99.90
36434;DHT22;31691;51.972;5.672;2023-08-20T02:12:11;25.50;99.90
36434;DHT22;31691;51.972;5.672;2023-08-20T02:17:14;25.10;99.90
36434;DHT22;31691;51.972;5.672;2023-08-20T02:22:16;25.10;99.90
36434;DHT22;31691;51.972;5.672;2023-08-20T02:27:19;25.10;99.90
36434;DHT22;31691;51.972;5.672;2023-08-20T02:32:21;25.10;99.90
36434;DHT22;31691;51.972;5.672;2023-08-20T02:37:23;25.00;99.90
36434;DHT22;31691;51.972;5.672;2023-08-20T02:42:26;24.90;99.90
36434;DHT22;31691;51.972;5.672;2023-08-20T02:47:28;24.80;99.90
36434;DHT22;31691;51.972;5.672;2023-08-20T02:52:30;24.70;99.90
36434;DHT22;31691;51.972;5.672;2023-08-20T02:57:33;24.60;99.90
36434;DHT22;31691;51.972;5.672;2023-08-20T03:02:35;24.50;99.90
36434;DHT22;31691;51.972;5.672;2023-08-20T03:07:38;24.40;99.90
36434;DHT22;31691;51.972;5.672;2023-08-20T03:12:40;24.30;99.90
36434;DHT22;31691;51.972;5.672;2023-08-20T03:17:43;24.30;99.90
36434;DHT22;31691;51.972;5.672;2023-08-20T03:22:45;24.30;99.90
36434;DHT22;31691;51.972;5.672;2023-08-20T03:27:47;24.30;99.90
36434;DHT22;31691;51.972;5.672;2023-08-20T03:32:49;24.30;99.90
36434;DHT22;31691;51.972;5.672;2023-08-20T03:37:52;24.20;99.90
36434;DHT22;31691;51.972;5.672;2023-08-20T03:42:54;24.30;99.90
36434;DHT22;31691;51.972;5.672;2023-08-20T03:47:56;24.30;99.90
36434;DHT22;31691;51.972;5.672;2023-08-20T03:52:59;24.20;99.90
36434;DHT22;31691;51.972;5.672;2023-08-20T03:58:01;24.20;99.90
36434;DHT22;31691;51.972;5.672;2023-08-20T04:03:04;24.20;99.90
36434;DHT22;31691;51.972;5.672;2023-08-20T04:08:07;24.10;99.90
36434;DHT22;31691;51.972;5.672;2023-08-20T04:13:10;24.10;99.90
36434;DHT22;31691;51.972;5.672;2023-08-20T04:18:12;24.00;99.90
36434;DHT22;31691;51.972;5.672;2023-08-20T04:23:14;24.00;99.90
36434;DHT22;31691;51.972;5.672;2023-08-20T04:28:16;23.90;99.90
36434;DHT22;31691;51.972;5.672;2023-08-20T04:33:19;23.90;99.90
36434;DHT22;31691;51.972;5.672;2023-08-20T04:38:21;23.90;99.90
36434;DHT22;31691;51.972;5.672;2023-08-20T04:43:24;23.90;99.90
36434;DHT22;31691;51.972;5.672;2023-08-20T04:48:26;23.90;99.90
36434;DHT22;31691;51.972;5.672;2023-08-20T04:53:28;23.90;99.90
36434;DHT22;31691;51.972;5.672;2023-08-20T04:58:30;23.90;99.90
36434;DHT22;31691;51.972;5.672;2023-08-20T05:03:33;23.90;99.90
36434;DHT22;31691;51.972;5.672;2023-08-20T05:08:35;24.00;99.90
36434;DHT22;31691;51.972;5.672;2023-08-20T05:13:37;24.00;99.90
36434;DHT22;31691;51.972;5.672;2023-08-20T05:18:39;23.80;99.90
36434;DHT22;31691;51.972;5.672;2023-08-20T05:23:41;23.70;99.90
36434;DHT22;31691;51.972;5.672;2023-08-20T05:28:44;24.00;99.90
36434;DHT22;31691;51.972;5.672;2023-08-20T05:33:46;24.20;99.90
36434;DHT22;31691;51.972;5.672;2023-08-20T05:38:48;24.40;99.90
36434;DHT22;31691;51.972;5.672;2023-08-20T05:43:50;24.60;99.90
36434;DHT22;31691;51.972;5.672;2023-08-20T05:48:53;24.90;99.90
36434;DHT22;31691;51.972;5.672;2023-08-20T05:53:55;25.30;99.90
36434;DHT22;31691;51.972;5.672;2023-08-20T05:58:57;25.70;99.90
36434;DHT22;31691;51.972;5.672;2023-08-20T06:03:59;26.20;99.90
36434;DHT22;31691;51.972;5.672;2023-08-20T06:09:02;26.80;99.90
36434;DHT22;31691;51.972;5.672;2023-08-20T06:14:11;27.70;99.40
36434;DHT22;31691;51.972;5.672;2023-08-20T06:19:13;28.50;98.20
36434;DHT22;31691;51.972;5.672;2023-08-20T06:24:15;29.30;97.20
36434;DHT22;31691;51.972;5.672;2023-08-20T06:29:18;29.80;96.10
36434;DHT22;31691;51.972;5.672;2023-08-20T06:34:20;29.90;95.60
36434;DHT22;31691;51.972;5.672;2023-08-20T06:39:22;29.70;95.30
36434;DHT22;31691;51.972;5.672;2023-08-20T06:44:24;29.40;95.70
36434;DHT22;31691;51.972;5.672;2023-08-20T06:49:27;28.90;95.90
36434;DHT22;31691;51.972;5.672;2023-08-20T06:54:29;28.50;96.40
36434;DHT22;31691;51.972;5.672;2023-08-20T06:59:31;28.00;96.70
36434;DHT22;31691;51.972;5.672;2023-08-20T07:04:33;27.60;97.30
36434;DHT22;31691;51.972;5.672;2023-08-20T07:09:36;27.50;97.60
36434;DHT22;31691;51.972;5.672;2023-08-20T07:14:40;27.40;97.80
36434;DHT22;31691;51.972;5.672;2023-08-20T07:19:42;27.40;97.70
36434;DHT22;31691;51.972;5.672;2023-08-20T07:24:44;27.30;97.70
36434;DHT22;31691;51.972;5.672;2023-08-20T07:29:46;27.40;97.90
36434;DHT22;31691;51.972;5.672;2023-08-20T07:34:49;27.50;98.00
36434;DHT22;31691;51.972;5.672;2023-08-20T07:39:51;27.50;98.00
36434;DHT22;31691;51.972;5.672;2023-08-20T07:44:53;27.60;97.60
36434;DHT22;31691;51.972;5.672;2023-08-20T07:49:55;27.60;97.50
36434;DHT22;31691;51.972;5.672;2023-08-20T07:54:58;27.80;97.40
36434;DHT22;31691;51.972;5.672;2023-08-20T08:00:00;28.00;97.40
36434;DHT22;31691;51.972;5.672;2023-08-20T08:05:04;28.00;97.20
36434;DHT22;31691;51.972;5.672;2023-08-20T08:10:07;28.10;97.00
36434;DHT22;31691;51.972;5.672;2023-08-20T08:15:09;28.20;97.10
36434;DHT22;31691;51.972;5.672;2023-08-20T08:20:12;28.30;97.00
36434;DHT22;31691;51.972;5.672;2023-08-20T08:25:14;28.40;96.60
36434;DHT22;31691;51.972;5.672;2023-08-20T08:30:17;28.50;96.20
36434;DHT22;31691;51.972;5.672;2023-08-20T08:35:20;28.40;95.90
36434;DHT22;31691;51.972;5.672;2023-08-20T08:40:24;28.50;95.90
36434;DHT22;31691;51.972;5.672;2023-08-20T08:45:29;28.60;95.10
36434;DHT22;31691;51.972;5.672;2023-08-20T08:50:36;29.00;95.20
36434;DHT22;31691;51.972;5.672;2023-08-20T08:55:38;29.20;94.20
36434;DHT22;31691;51.972;5.672;2023-08-20T09:00:44;29.50;94.30
36434;DHT22;31691;51.972;5.672;2023-08-20T09:05:48;29.80;93.40
36434;DHT22;31691;51.972;5.672;2023-08-20T09:10:52;29.90;93.40
36434;DHT22;31691;51.972;5.672;2023-08-20T09:15:54;30.00;93.10
36434;DHT22;31691;51.972;5.672;2023-08-20T09:20:57;30.20;92.80
36434;DHT22;31691;51.972;5.672;2023-08-20T09:26:03;30.10;92.60
36434;DHT22;31691;51.972;5.672;2023-08-20T09:31:05;30.40;92.50
36434;DHT22;31691;51.972;5.672;2023-08-20T09:36:10;30.70;91.80
36434;DHT22;31691;51.972;5.672;2023-08-20T09:41:12;30.90;91.60
36434;DHT22;31691;51.972;5.672;2023-08-20T09:46:16;31.10;91.90
36434;DHT22;31691;51.972;5.672;2023-08-20T09:51:25;31.20;91.30
36434;DHT22;31691;51.972;5.672;2023-08-20T09:56:28;31.30;90.80
36434;DHT22;31691;51.972;5.672;2023-08-20T10:01:31;31.20;89.80
36434;DHT22;31691;51.972;5.672;2023-08-20T10:06:34;31.20;90.70
36434;DHT22;31691;51.972;5.672;2023-08-20T10:11:37;31.30;90.10
36434;DHT22;31691;51.972;5.672;2023-08-20T10:16:39;31.40;88.40
36434;DHT22;31691;51.972;5.672;2023-08-20T10:21:45;31.40;89.40
36434;DHT22;31691;51.972;5.672;2023-08-20T10:26:48;31.50;87.20
36434;DHT22;31691;51.972;5.672;2023-08-20T10:32:10;31.40;87.90
36434;DHT22;31691;51.972;5.672;2023-08-20T10:37:13;31.50;88.50
36434;DHT22;31691;51.972;5.672;2023-08-20T10:47:47;31.60;90.00
36434;DHT22;31691;51.972;5.672;2023-08-20T10:52:55;31.80;87.40
36434;DHT22;31691;51.972;5.672;2023-08-20T10:57:58;31.60;87.20
36434;DHT22;31691;51.972;5.672;2023-08-20T11:03:02;31.80;86.40
36434;DHT22;31691;51.972;5.672;2023-08-20T11:08:05;32.10;84.90
36434;DHT22;31691;51.972;5.672;2023-08-20T11:13:10;32.10;85.40
36434;DHT22;31691;51.972;5.672;2023-08-20T11:18:12;32.30;85.30
36434;DHT22;31691;51.972;5.672;2023-08-20T11:23:14;32.40;85.50
36434;DHT22;31691;51.972;5.672;2023-08-20T11:28:19;32.60;86.60
36434;DHT22;31691;51.972;5.672;2023-08-20T11:33:22;32.60;84.80
36434;DHT22;31691;51.972;5.672;2023-08-20T11:38:26;32.70;85.60
36434;DHT22;31691;51.972;5.672;2023-08-20T11:43:29;32.90;83.80
36434;DHT22;31691;51.972;5.672;2023-08-20T11:48:31;33.00;83.30
36434;DHT22;31691;51.972;5.672;2023-08-20T11:53:34;33.20;83.90
36434;DHT22;31691;51.972;5.672;2023-08-20T11:58:36;33.20;83.00
36434;DHT22;31691;51.972;5.672;2023-08-20T12:03:38;33.30;80.90
36434;DHT22;31691;51.972;5.672;2023-08-20T12:08:41;33.30;81.90
36434;DHT22;31691;51.972;5.672;2023-08-20T12:13:43;33.50;81.70
36434;DHT22;31691;51.972;5.672;2023-08-20T12:18:46;33.90;81.40
36434;DHT22;31691;51.972;5.672;2023-08-20T12:23:48;33.80;80.80
36434;DHT22;31691;51.972;5.672;2023-08-20T12:28:50;33.90;80.90
36434;DHT22;31691;51.972;5.672;2023-08-20T12:33:52;34.00;82.10
36434;DHT22;31691;51.972;5.672;2023-08-20T12:38:55;34.00;80.60
36434;DHT22;31691;51.972;5.672;2023-08-20T12:43:58;34.00;79.30
36434;DHT22;31691;51.972;5.672;2023-08-20T12:49:00;34.40;80.90
36434;DHT22;31691;51.972;5.672;2023-08-20T12:54:03;34.40;78.20
36434;DHT22;31691;51.972;5.672;2023-08-20T12:59:06;34.40;78.60
36434;DHT22;31691;51.972;5.672;2023-08-20T13:04:08;34.00;79.00
36434;DHT22;31691;51.972;5.672;2023-08-20T13:09:11;33.60;78.40
36434;DHT22;31691;51.972;5.672;2023-08-20T13:14:13;33.20;80.20
36434;DHT22;31691;51.972;5.672;2023-08-20T13:19:16;33.20;80.30
36434;DHT22;31691;51.972;5.672;2023-08-20T13:24:18;33.10;81.50
36434;DHT22;31691;51.972;5.672;2023-08-20T13:29:20;33.50;80.80
36434;DHT22;31691;51.972;5.672;2023-08-20T13:34:23;33.60;80.70
36434;DHT22;31691;51.972;5.672;2023-08-20T13:39:25;33.50;79.70
36434;DHT22;31691;51.972;5.672;2023-08-20T13:44:27;33.40;81.00
36434;DHT22;31691;51.972;5.672;2023-08-20T13:49:29;33.30;81.00
36434;DHT22;31691;51.972;5.672;2023-08-20T13:54:32;33.50;80.40
36434;DHT22;31691;51.972;5.672;2023-08-20T13:59:34;33.70;79.90
36434;DHT22;31691;51.972;5.672;2023-08-20T14:04:37;33.90;79.50
36434;DHT22;31691;51.972;5.672;2023-08-20T14:09:39;34.10;78.30
36434;DHT22;31691;51.972;5.672;2023-08-20T14:14:42;34.00;78.50
36434;DHT22;31691;51.972;5.672;2023-08-20T14:19:44;33.90;78.30
36434;DHT22;31691;51.972;5.672;2023-08-20T14:24:47;33.90;78.80
36434;DHT22;31691;51.972;5.672;2023-08-20T14:29:49;33.90;78.90
36434;DHT22;31691;51.972;5.672;2023-08-20T14:34:51;34.00;77.80
36434;DHT22;31691;51.972;5.672;2023-08-20T14:39:54;34.30;77.80
36434;DHT22;31691;51.972;5.672;2023-08-20T14:44:56;34.60;77.30
36434;DHT22;31691;51.972;5.672;2023-08-20T14:49:58;34.60;76.50
36434;DHT22;31691;51.972;5.672;2023-08-20T14:55:01;34.90;76.80
36434;DHT22;31691;51.972;5.672;2023-08-20T15:00:04;35.10;78.10
36434;DHT22;31691;51.972;5.672;2023-08-20T15:05:10;35.00;76.80
36434;DHT22;31691;51.972;5.672;2023-08-20T15:10:13;34.90;77.30
36434;DHT22;31691;51.972;5.672;2023-08-20T15:15:15;35.00;76.70
36434;DHT22;31691;51.972;5.672;2023-08-20T15:20:18;34.70;76.10
36434;DHT22;31691;51.972;5.672;2023-08-20T15:25:20;34.70;77.40
36434;DHT22;31691;51.972;5.672;2023-08-20T15:30:22;35.00;77.70
36434;DHT22;31691;51.972;5.672;2023-08-20T15:35:27;35.00;75.10
36434;DHT22;31691;51.972;5.672;2023-08-20T15:40:29;34.90;77.00
36434;DHT22;31691;51.972;5.672;2023-08-20T15:45:31;35.00;75.20
36434;DHT22;31691;51.972;5.672;2023-08-20T15:50:34;34.90;76.80
36434;DHT22;31691;51.972;5.672;2023-08-20T15:55:36;34.80;76.40
36434;DHT22;31691;51.972;5.672;2023-08-20T16:00:38;34.70;77.70
36434;DHT22;31691;51.972;5.672;2023-08-20T16:05:41;34.40;78.10
36434;DHT22;31691;51.972;5.672;2023-08-20T16:10:43;34.40;79.60
36434;DHT22;31691;51.972;5.672;2023-08-20T16:15:47;34.40;79.20
36434;DHT22;31691;51.972;5.672;2023-08-20T16:20:50;34.30;79.50
36434;DHT22;31691;51.972;5.672;2023-08-20T16:25:52;34.10;79.60
36434;DHT22;31691;51.972;5.672;2023-08-20T16:30:54;34.30;79.30
36434;DHT22;31691;51.972;5.672;2023-08-20T16:35:56;34.30;79.40
36434;DHT22;31691;51.972;5.672;2023-08-20T16:41:00;33.60;80.50
36434;DHT22;31691;51.972;5.672;2023-08-20T16:46:03;33.30;81.10
36434;DHT22;31691;51.972;5.672;2023-08-20T16:51:06;34.00;80.90
36434;DHT22;31691;51.972;5.672;2023-08-20T16:56:08;34.20;79.20
36434;DHT22;31691;51.972;5.672;2023-08-20T17:01:10;34.50;79.60
36434;DHT22;31691;51.972;5.672;2023-08-20T17:06:13;34.50;80.90
36434;DHT22;31691;51.972;5.672;2023-08-20T17:11:15;34.10;79.70
36434;DHT22;31691;51.972;5.672;2023-08-20T17:16:18;33.80;81.50
36434;DHT22;31691;51.972;5.672;2023-08-20T17:21:21;33.70;81.20
36434;DHT22;31691;51.972;5.672;2023-08-20T17:26:24;33.40;83.20
36434;DHT22;31691;51.972;5.672;2023-08-20T17:31:26;33.30;82.00
36434;DHT22;31691;51.972;5.672;2023-08-20T17:36:28;33.30;81.20
36434;DHT22;31691;51.972;5.672;2023-08-20T17:41:31;33.20;81.50
36434;DHT22;31691;51.972;5.672;2023-08-20T17:46:49;33.10;81.60
36434;DHT22;31691;51.972;5.672;2023-08-20T17:51:51;33.00;81.00
36434;DHT22;31691;51.972;5.672;2023-08-20T17:56:54;32.70;81.40
36434;DHT22;31691;51.972;5.672;2023-08-20T18:01:56;32.70;81.40
36434;DHT22;31691;51.972;5.672;2023-08-20T18:06:58;32.10;83.90
36434;DHT22;31691;51.972;5.672;2023-08-20T18:12:01;31.90;83.60
36434;DHT22;31691;51.972;5.672;2023-08-20T18:17:03;31.40;84.70
36434;DHT22;31691;51.972;5.672;2023-08-20T18:22:06;31.10;84.20
36434;DHT22;31691;51.972;5.672;2023-08-20T18:27:08;30.90;82.50
36434;DHT22;31691;51.972;5.672;2023-08-20T18:32:10;30.30;85.80
36434;DHT22;31691;51.972;5.672;2023-08-20T18:37:13;30.50;85.00
36434;DHT22;31691;51.972;5.672;2023-08-20T18:42:15;30.80;83.60
36434;DHT22;31691;51.972;5.672;2023-08-20T18:47:17;30.90;83.90
36434;DHT22;31691;51.972;5.672;2023-08-20T18:52:19;30.80;84.00
36434;DHT22;31691;51.972;5.672;2023-08-20T18:57:22;30.30;84.90
36434;DHT22;31691;51.972;5.672;2023-08-20T19:02:24;30.00;86.10
36434;DHT22;31691;51.972;5.672;2023-08-20T19:07:27;30.00;86.90
36434;DHT22;31691;51.972;5.672;2023-08-20T19:12:32;29.30;89.20
36434;DHT22;31691;51.972;5.672;2023-08-20T19:17:34;29.00;90.40
36434;DHT22;31691;51.972;5.672;2023-08-20T19:22:39;29.00;89.80
36434;DHT22;31691;51.972;5.672;2023-08-20T19:27:42;28.70;90.90
36434;DHT22;31691;51.972;5.672;2023-08-20T19:32:44;28.80;90.60
36434;DHT22;31691;51.972;5.672;2023-08-20T19:37:48;29.00;91.40
36434;DHT22;31691;51.972;5.672;2023-08-20T19:42:50;29.10;90.30
36434;DHT22;31691;51.972;5.672;2023-08-20T19:47:52;28.80;91.00
36434;DHT22;31691;51.972;5.672;2023-08-20T19:52:54;28.30;91.60
36434;DHT22;31691;51.972;5.672;2023-08-20T19:57:57;28.30;91.80
36434;DHT22;31691;51.972;5.672;2023-08-20T20:03:00;28.30;92.10
36434;DHT22;31691;51.972;5.672;2023-08-20T20:08:03;28.20;92.40
36434;DHT22;31691;51.972;5.672;2023-08-20T20:13:05;28.30;92.30
36434;DHT22;31691;51.972;5.672;2023-08-20T20:18:08;28.20;92.30
36434;DHT22;31691;51.972;5.672;2023-08-20T20:23:10;28.40;92.90
36434;DHT22;31691;51.972;5.672;2023-08-20T20:28:12;28.40;93.30
36434;DHT22;31691;51.972;5.672;2023-08-20T20:33:17;28.20;92.60
36434;DHT22;31691;51.972;5.672;2023-08-20T20:38:20;27.90;92.90
36434;DHT22;31691;51.972;5.672;2023-08-20T20:43:23;27.90;92.80
36434;DHT22;31691;51.972;5.672;2023-08-20T20:48:26;27.70;93.80
36434;DHT22;31691;51.972;5.672;2023-08-20T20:53:29;27.80;93.60
36434;DHT22;31691;51.972;5.672;2023-08-20T20:58:31;27.90;93.30
36434;DHT22;31691;51.972;5.672;2023-08-20T21:03:33;27.90;93.00
36434;DHT22;31691;51.972;5.672;2023-08-20T21:08:35;27.80;93.40
36434;DHT22;31691;51.972;5.672;2023-08-20T21:13:37;27.70;93.20
36434;DHT22;31691;51.972;5.672;2023-08-20T21:18:40;27.60;93.50
36434;DHT22;31691;51.972;5.672;2023-08-20T21:23:42;27.80;93.60
36434;DHT22;31691;51.972;5.672;2023-08-20T21:28:44;27.80;93.40
36434;DHT22;31691;51.972;5.672;2023-08-20T21:33:46;28.00;93.40
36434;DHT22;31691;51.972;5.672;2023-08-20T21:38:49;27.70;93.80
36434;DHT22;31691;51.972;5.672;2023-08-20T21:43:51;27.60;93.80
36434;DHT22;31691;51.972;5.672;2023-08-20T21:48:53;27.40;93.80
36434;DHT22;31691;51.972;5.672;2023-08-20T21:53:56;26.60;95.10
36434;DHT22;31691;51.972;5.672;2023-08-20T21:59:02;26.90;95.30
36434;DHT22;31691;51.972;5.672;2023-08-20T22:04:04;27.30;94.60
36434;DHT22;31691;51.972;5.672;2023-08-20T22:09:06;27.50;94.00
36434;DHT22;31691;51.972;5.672;2023-08-20T22:14:10;27.50;94.20
36434;DHT22;31691;51.972;5.672;2023-08-20T22:19:12;27.20;94.30
36434;DHT22;31691;51.972;5.672;2023-08-20T22:24:15;27.40;94.70
36434;DHT22;31691;51.972;5.672;2023-08-20T22:29:21;27.70;94.90
36434;DHT22;31691;51.972;5.672;2023-08-20T22:34:24;27.40;94.10
36434;DHT22;31691;51.972;5.672;2023-08-20T22:39:27;26.50;95.10
36434;DHT22;31691;51.972;5.672;2023-08-20T22:44:30;27.00;95.20
36434;DHT22;31691;51.972;5.672;2023-08-20T22:49:32;27.40;94.70
36434;DHT22;31691;51.972;5.672;2023-08-20T22:54:34;27.50;94.40
36434;DHT22;31691;51.972;5.672;2023-08-20T22:59:38;27.80;94.30
36434;DHT22;31691;51.972;5.672;2023-08-20T23:04:40;27.90;94.00
36434;DHT22;31691;51.972;5.672;2023-08-20T23:09:44;27.90;93.80
36434;DHT22;31691;51.972;5.672;2023-08-20T23:14:46;27.90;93.80
36434;DHT22;31691;51.972;5.672;2023-08-20T23:19:48;27.80;93.80
36434;DHT22;31691;51.972;5.672;2023-08-20T23:24:51;27.80;93.90
36434;DHT22;31691;51.972;5.672;2023-08-20T23:29:53;27.90;93.90
36434;DHT22;31691;51.972;5.672;2023-08-20T23:34:55;27.90;94.00
36434;DHT22;31691;51.972;5.672;2023-08-20T23:39:57;27.90;94.00
36434;DHT22;31691;51.972;5.672;2023-08-20T23:44:59;27.90;94.00
36434;DHT22;31691;51.972;5.672;2023-08-20T23:50:02;27.80;93.90
36434;DHT22;31691;51.972;5.672;2023-08-20T23:55:04;27.80;93.90
